Time;durP1;ratioP1;P1;durP2;ratioP2;P2;SDS_P1;SDS_P2;PMS_P1;PMS_P2;Temp;Humidity;BMP_temperature;BMP_pressure;BME280_temperature;BME280_humidity;BME280_pressure;Samples;Min_cycle;Max_cycle;Signal;HPM_P1;HPM_P2
2023/05/14 00:01:40;;;;;;;;;;;18.60;59.30;;;;;;5031757;28;852;-70
2023/05/14 00:04:05;;;;;;;;;;;18.60;59.30;;;;;;5022282;28;1101;-70
2023/05/14 00:06:31;;;;;;;;;;;18.60;59.40;;;;;;5032570;28;1267;-70
2023/05/14 00:08:56;;;;;;;;;;;18.60;59.40;;;;;;5017915;28;867;-70
2023/05/14 00:11:21;;;;;;;;;;;18.60;59.40;;;;;;5025977;28;935;-69
2023/05/14 00:13:47;;;;;;;;;;;18.60;59.40;;;;;;5029818;28;1014;-70
2023/05/14 00:16:13;;;;;;;;;;;18.60;59.40;;;;;;5031389;28;1336;-69
2023/05/14 00:18:38;;;;;;;;;;;18.60;59.40;;;;;;5032984;28;1909;-70
2023/05/14 00:21:04;;;;;;;;;;;18.60;59.50;;;;;;5025120;28;820;-70
2023/05/14 00:23:29;;;;;;;;;;;18.60;59.50;;;;;;5028755;28;811;-70
2023/05/14 00:25:55;;;;;;;;;;;18.60;59.50;;;;;;5035186;28;1273;-70
2023/05/14 00:28:20;;;;;;;;;;;18.60;59.50;;;;;;5028368;28;1337;-70
2023/05/14 00:30:46;;;;;;;;;;;18.60;59.50;;;;;;5025243;28;840;-70
2023/05/14 00:33:11;;;;;;;;;;;18.60;59.50;;;;;;5028326;28;1502;-69
2023/05/14 00:35:37;;;;;;;;;;;18.60;59.50;;;;;;5026938;28;1265;-70
2023/05/14 00:38:02;;;;;;;;;;;18.60;59.50;;;;;;5030851;28;1949;-70
2023/05/14 00:40:28;;;;;;;;;;;18.60;59.50;;;;;;5029994;28;968;-70
2023/05/14 00:42:54;;;;;;;;;;;18.60;59.50;;;;;;5030114;28;934;-70
2023/05/14 00:45:19;;;;;;;;;;;18.60;59.60;;;;;;5027050;28;1343;-70
2023/05/14 00:47:45;;;;;;;;;;;18.60;59.60;;;;;;5023514;28;823;-69
2023/05/14 00:50:10;;;;;;;;;;;18.60;59.60;;;;;;5027757;28;850;-70
2023/05/14 00:52:36;;;;;;;;;;;18.60;59.60;;;;;;5033331;28;812;-69
2023/05/14 00:55:02;;;;;;;;;;;18.50;59.50;;;;;;5030083;28;1260;-70
2023/05/14 00:57:28;;;;;;;;;;;18.60;59.60;;;;;;5030003;28;1932;-70
2023/05/14 00:59:53;;;;;;;;;;;18.60;59.60;;;;;;5029864;28;809;-70
2023/05/14 01:02:19;;;;;;;;;;;18.60;59.60;;;;;;5031603;28;903;-69
2023/05/14 01:04:44;;;;;;;;;;;18.60;59.70;;;;;;5025845;28;808;-69
2023/05/14 01:07:19;;;;;;;;;;;18.60;59.70;;;;;;5031880;28;1326;-69
2023/05/14 01:09:55;;;;;;;;;;;18.60;59.70;;;;;;5024500;28;931;-70
2023/05/14 01:12:21;;;;;;;;;;;18.60;59.70;;;;;;5027511;28;980;-70
2023/05/14 01:14:57;;;;;;;;;;;18.60;59.70;;;;;;5029039;28;873;-69
2023/05/14 01:17:23;;;;;;;;;;;18.60;59.70;;;;;;5032762;28;1960;-70
2023/05/14 01:19:50;;;;;;;;;;;18.60;59.70;;;;;;5025363;28;899;-70
2023/05/14 01:22:15;;;;;;;;;;;18.60;59.70;;;;;;5045710;28;910;-70
2023/05/14 01:24:41;;;;;;;;;;;18.60;59.80;;;;;;5025602;28;888;-69
2023/05/14 01:27:12;;;;;;;;;;;18.60;59.80;;;;;;5026778;28;1243;-69
2023/05/14 01:29:39;;;;;;;;;;;18.60;59.80;;;;;;5028285;28;1329;-70
2023/05/14 01:32:05;;;;;;;;;;;18.60;59.80;;;;;;5044202;28;930;-68
2023/05/14 01:34:30;;;;;;;;;;;18.60;59.80;;;;;;5032751;28;1027;-69
2023/05/14 01:36:56;;;;;;;;;;;18.60;59.80;;;;;;5027805;28;1894;-70
2023/05/14 01:39:21;;;;;;;;;;;18.60;59.80;;;;;;5029767;28;868;-70
2023/05/14 01:41:47;;;;;;;;;;;18.50;59.80;;;;;;5029158;28;966;-68
2023/05/14 01:44:12;;;;;;;;;;;18.60;59.80;;;;;;5029584;28;948;-70
2023/05/14 01:46:38;;;;;;;;;;;18.60;59.80;;;;;;5025001;28;1273;-69
2023/05/14 01:49:03;;;;;;;;;;;18.50;59.80;;;;;;5020001;28;813;-69
2023/05/14 01:51:29;;;;;;;;;;;18.50;59.80;;;;;;5025678;28;867;-69
2023/05/14 01:53:54;;;;;;;;;;;18.60;59.90;;;;;;5023792;28;1038;-69
2023/05/14 01:56:21;;;;;;;;;;;18.60;59.90;;;;;;5019387;28;1350;-69
2023/05/14 01:58:47;;;;;;;;;;;18.60;59.80;;;;;;5027221;28;1973;-69
2023/05/14 02:01:12;;;;;;;;;;;18.60;59.90;;;;;;5019547;28;867;-69
2023/05/14 02:03:38;;;;;;;;;;;18.60;59.90;;;;;;5027754;28;844;-69
2023/05/14 02:06:03;;;;;;;;;;;18.60;59.90;;;;;;5027619;28;1260;-70
2023/05/14 02:08:29;;;;;;;;;;;18.60;59.90;;;;;;5027504;28;816;-68
2023/05/14 02:10:54;;;;;;;;;;;18.60;59.90;;;;;;5027062;28;863;-69
2023/05/14 02:13:20;;;;;;;;;;;18.60;59.90;;;;;;5026584;28;1219;-70
2023/05/14 02:15:45;;;;;;;;;;;18.60;59.90;;;;;;5023540;28;1341;-70
2023/05/14 02:18:11;;;;;;;;;;;18.60;59.90;;;;;;5027235;28;1906;-70
2023/05/14 02:20:36;;;;;;;;;;;18.60;59.90;;;;;;5024584;28;889;-68
2023/05/14 02:23:02;;;;;;;;;;;18.60;60.00;;;;;;5020267;28;1039;-70
2023/05/14 02:25:27;;;;;;;;;;;18.60;60.00;;;;;;5026228;28;1209;-70
2023/05/14 02:27:53;;;;;;;;;;;18.60;60.00;;;;;;5023511;28;1464;-69
2023/05/14 02:30:18;;;;;;;;;;;18.60;60.00;;;;;;5023655;28;839;-70
2023/05/14 02:32:44;;;;;;;;;;;18.60;60.00;;;;;;5024439;28;1010;-70
2023/05/14 02:35:10;;;;;;;;;;;18.60;60.00;;;;;;5025071;28;1435;-70
2023/05/14 02:37:35;;;;;;;;;;;18.60;60.00;;;;;;5020532;28;1898;-70
2023/05/14 02:40:01;;;;;;;;;;;18.60;60.10;;;;;;5027038;28;934;-70
2023/05/14 02:42:26;;;;;;;;;;;18.60;60.10;;;;;;5022748;28;931;-68
2023/05/14 02:44:51;;;;;;;;;;;18.60;60.00;;;;;;5021572;28;1010;-69
2023/05/14 02:47:17;;;;;;;;;;;18.60;60.10;;;;;;5026675;28;1243;-69
2023/05/14 02:49:42;;;;;;;;;;;18.60;60.10;;;;;;5023365;28;1074;-69
2023/05/14 02:52:08;;;;;;;;;;;18.60;60.10;;;;;;5025545;28;845;-69
2023/05/14 02:54:33;;;;;;;;;;;18.60;60.10;;;;;;5023858;28;860;-70
2023/05/14 02:56:59;;;;;;;;;;;18.50;60.10;;;;;;5025411;28;1906;-68
2023/05/14 02:59:25;;;;;;;;;;;18.60;60.10;;;;;;5025554;28;894;-69
2023/05/14 03:01:50;;;;;;;;;;;18.60;60.20;;;;;;5022019;28;836;-68
2023/05/14 03:04:16;;;;;;;;;;;18.60;60.10;;;;;;5024597;28;789;-69
2023/05/14 03:06:41;;;;;;;;;;;18.60;60.20;;;;;;5027320;28;1225;-69
2023/05/14 03:09:07;;;;;;;;;;;18.60;60.20;;;;;;5018650;28;1002;-69
2023/05/14 03:11:32;;;;;;;;;;;18.60;60.20;;;;;;5019659;28;1037;-68
2023/05/14 03:13:57;;;;;;;;;;;18.60;60.20;;;;;;5025465;28;939;-69
2023/05/14 03:16:23;;;;;;;;;;;18.60;60.20;;;;;;5024179;28;1315;-69
2023/05/14 03:18:49;;;;;;;;;;;18.60;60.20;;;;;;5022610;28;1909;-70
2023/05/14 03:21:14;;;;;;;;;;;18.60;60.20;;;;;;5026886;28;817;-68
2023/05/14 03:23:40;;;;;;;;;;;18.60;60.20;;;;;;5024866;28;1180;-69
2023/05/14 03:26:05;;;;;;;;;;;18.60;60.20;;;;;;5023617;28;1248;-70
2023/05/14 03:28:31;;;;;;;;;;;18.60;60.30;;;;;;5024722;28;1342;-68
2023/05/14 03:30:56;;;;;;;;;;;18.60;60.30;;;;;;5023846;28;994;-69
2023/05/14 03:33:22;;;;;;;;;;;18.60;60.30;;;;;;5024828;28;1437;-69
2023/05/14 03:35:47;;;;;;;;;;;18.60;60.30;;;;;;5025976;28;1259;-68
2023/05/14 03:38:13;;;;;;;;;;;18.50;60.20;;;;;;5023797;28;1910;-69
2023/05/14 03:40:38;;;;;;;;;;;18.60;60.30;;;;;;5022148;28;1006;-69
2023/05/14 03:43:04;;;;;;;;;;;18.60;60.30;;;;;;5020451;28;861;-70
2023/05/14 03:45:29;;;;;;;;;;;18.60;60.30;;;;;;5021118;28;1671;-69
2023/05/14 03:47:55;;;;;;;;;;;18.60;60.30;;;;;;5023568;28;834;-69
2023/05/14 03:50:20;;;;;;;;;;;18.60;60.30;;;;;;5023452;28;826;-68
2023/05/14 03:52:46;;;;;;;;;;;18.60;60.30;;;;;;5021439;28;812;-69
2023/05/14 03:55:11;;;;;;;;;;;18.60;60.40;;;;;;5021336;28;996;-69
2023/05/14 03:57:37;;;;;;;;;;;18.60;60.40;;;;;;5026741;28;1886;-67
2023/05/14 04:00:03;;;;;;;;;;;18.60;60.40;;;;;;5026144;28;1403;-68
2023/05/14 04:02:28;;;;;;;;;;;18.60;60.40;;;;;;5022313;28;1399;-68
2023/05/14 04:04:54;;;;;;;;;;;18.60;60.40;;;;;;5025228;28;1423;-69
2023/05/14 04:07:19;;;;;;;;;;;18.60;60.40;;;;;;5026518;28;1578;-72
2023/05/14 04:09:44;;;;;;;;;;;18.60;60.40;;;;;;5024631;28;1442;-71
2023/05/14 04:12:10;;;;;;;;;;;18.60;60.40;;;;;;5027194;28;1377;-70
2023/05/14 04:14:36;;;;;;;;;;;18.60;60.40;;;;;;5025338;28;1233;-70
2023/05/14 04:17:01;;;;;;;;;;;18.60;60.40;;;;;;5024897;28;1914;-69
2023/05/14 04:19:26;;;;;;;;;;;18.60;60.50;;;;;;5027795;28;1354;-69
2023/05/14 04:21:52;;;;;;;;;;;18.60;60.50;;;;;;5023206;28;1605;-68
2023/05/14 04:24:17;;;;;;;;;;;18.60;60.50;;;;;;5026856;28;1609;-71
2023/05/14 04:26:43;;;;;;;;;;;18.60;60.50;;;;;;5028326;28;1388;-70
2023/05/14 04:29:08;;;;;;;;;;;18.60;60.50;;;;;;5028674;28;1313;-71
2023/05/14 04:31:34;;;;;;;;;;;18.60;60.50;;;;;;5030848;28;1460;-70
2023/05/14 04:34:00;;;;;;;;;;;18.60;60.50;;;;;;5027383;28;1281;-67
2023/05/14 04:36:25;;;;;;;;;;;18.60;60.50;;;;;;5026784;28;1348;-69
2023/05/14 04:38:51;;;;;;;;;;;18.60;60.50;;;;;;5025686;28;1906;-68
2023/05/14 04:41:16;;;;;;;;;;;18.60;60.50;;;;;;5023244;28;1263;-69
2023/05/14 04:43:42;;;;;;;;;;;18.60;60.60;;;;;;5026357;28;1369;-68
2023/05/14 04:46:08;;;;;;;;;;;18.60;60.60;;;;;;5023168;28;1347;-69
2023/05/14 04:48:33;;;;;;;;;;;18.60;60.60;;;;;;5020658;28;887;-68
2023/05/14 04:50:59;;;;;;;;;;;18.60;60.60;;;;;;5029774;28;883;-68
2023/05/14 04:53:25;;;;;;;;;;;18.60;60.60;;;;;;5031581;28;1207;-68
2023/05/14 04:55:50;;;;;;;;;;;18.60;60.60;;;;;;5030244;28;1338;-70
2023/05/14 04:58:16;;;;;;;;;;;18.60;60.60;;;;;;5027015;28;1906;-69
2023/05/14 05:00:41;;;;;;;;;;;18.60;60.60;;;;;;5025829;28;867;-70
2023/05/14 05:03:07;;;;;;;;;;;18.60;60.50;;;;;;5016840;28;1858;-72
2023/05/14 05:05:33;;;;;;;;;;;18.60;60.50;;;;;;5018975;28;1879;-72
2023/05/14 05:08:00;;;;;;;;;;;18.60;61.00;;;;;;5027180;28;1353;-72
2023/05/14 05:10:26;;;;;;;;;;;18.60;60.50;;;;;;5028060;28;1245;-72
2023/05/14 05:12:51;;;;;;;;;;;18.60;60.50;;;;;;5022664;28;946;-70
2023/05/14 05:15:16;;;;;;;;;;;18.60;60.50;;;;;;5026287;28;1645;-71
2023/05/14 05:17:42;;;;;;;;;;;18.60;60.40;;;;;;5024081;28;1933;-71
2023/05/14 05:20:08;;;;;;;;;;;18.70;60.50;;;;;;5026880;28;867;-71
2023/05/14 05:22:35;;;;;;;;;;;18.70;60.50;;;;;;5026865;28;840;-71
2023/05/14 05:25:04;;;;;;;;;;;18.70;60.40;;;;;;5022564;28;828;-72
2023/05/14 05:27:29;;;;;;;;;;;18.70;60.40;;;;;;5023710;28;1282;-72
2023/05/14 05:29:55;;;;;;;;;;;18.70;60.40;;;;;;5029471;28;971;-72
2023/05/14 05:32:20;;;;;;;;;;;18.70;60.30;;;;;;5028554;28;864;-71
2023/05/14 05:34:46;;;;;;;;;;;18.70;60.20;;;;;;5026373;28;1293;-68
2023/05/14 05:37:12;;;;;;;;;;;18.70;60.30;;;;;;5030659;28;1914;-72
2023/05/14 05:39:38;;;;;;;;;;;18.70;60.30;;;;;;5024816;28;1416;-71
2023/05/14 05:42:04;;;;;;;;;;;18.70;60.20;;;;;;5026653;28;1336;-71
2023/05/14 05:44:29;;;;;;;;;;;18.80;60.20;;;;;;5027575;28;1271;-71
2023/05/14 05:46:55;;;;;;;;;;;18.80;60.20;;;;;;5027542;28;1382;-72
2023/05/14 05:49:21;;;;;;;;;;;18.80;60.20;;;;;;5023438;28;1606;-71
2023/05/14 05:51:46;;;;;;;;;;;18.80;60.10;;;;;;5025186;28;1419;-72
2023/05/14 05:54:12;;;;;;;;;;;18.80;60.10;;;;;;5025757;28;1391;-72
2023/05/14 05:56:37;;;;;;;;;;;18.80;60.10;;;;;;5024473;28;1955;-70
2023/05/14 05:59:03;;;;;;;;;;;18.80;60.00;;;;;;5022870;28;1380;-72
2023/05/14 06:01:28;;;;;;;;;;;18.80;59.90;;;;;;5027425;28;1316;-71
2023/05/14 06:03:54;;;;;;;;;;;18.90;60.00;;;;;;5026440;28;1270;-70
2023/05/14 06:06:20;;;;;;;;;;;18.80;59.90;;;;;;5028449;28;1530;-70
2023/05/14 06:08:46;;;;;;;;;;;18.90;60.00;;;;;;5025387;28;1004;-70
2023/05/14 06:11:11;;;;;;;;;;;18.80;59.90;;;;;;5021762;28;1011;-70
2023/05/14 06:13:37;;;;;;;;;;;18.90;59.90;;;;;;5024728;28;960;-73
2023/05/14 06:16:02;;;;;;;;;;;18.90;59.90;;;;;;5027246;28;1394;-72
2023/05/14 06:18:28;;;;;;;;;;;18.90;59.90;;;;;;5026067;28;1962;-71
2023/05/14 06:20:55;;;;;;;;;;;18.90;60.00;;;;;;5028206;28;1180;-71
2023/05/14 06:23:21;;;;;;;;;;;18.90;59.90;;;;;;5028175;28;1235;-71
2023/05/14 06:25:48;;;;;;;;;;;18.90;59.90;;;;;;5025612;28;1389;-71
2023/05/14 06:28:14;;;;;;;;;;;18.90;59.90;;;;;;5028342;28;1360;-71
2023/05/14 06:30:39;;;;;;;;;;;18.90;60.00;;;;;;5025036;28;796;-71
2023/05/14 06:33:05;;;;;;;;;;;18.90;59.90;;;;;;5027004;28;835;-71
2023/05/14 06:35:31;;;;;;;;;;;18.90;60.00;;;;;;5029096;28;1256;-71
2023/05/14 06:37:56;;;;;;;;;;;18.90;60.00;;;;;;5027859;28;1894;-71
2023/05/14 06:40:22;;;;;;;;;;;18.90;60.00;;;;;;5023917;28;888;-71
2023/05/14 06:42:47;;;;;;;;;;;18.90;60.80;;;;;;5021566;28;899;-71
2023/05/14 06:45:12;;;;;;;;;;;18.90;60.00;;;;;;5026045;28;1003;-71
2023/05/14 06:47:38;;;;;;;;;;;18.90;60.00;;;;;;5027314;28;1324;-71
2023/05/14 06:50:04;;;;;;;;;;;18.90;60.00;;;;;;5022642;28;815;-71
2023/05/14 06:52:29;;;;;;;;;;;18.90;60.00;;;;;;5023778;28;1574;-71
2023/05/14 06:54:55;;;;;;;;;;;18.80;60.00;;;;;;5023022;28;894;-71
2023/05/14 06:57:20;;;;;;;;;;;18.80;60.00;;;;;;5016224;28;4363;-70
2023/05/14 06:59:46;;;;;;;;;;;18.80;60.00;;;;;;5024739;28;1293;-71
2023/05/14 07:02:11;;;;;;;;;;;18.90;60.00;;;;;;5028036;28;876;-71
2023/05/14 07:04:37;;;;;;;;;;;18.90;60.10;;;;;;5023970;28;2073;-71
2023/05/14 07:07:02;;;;;;;;;;;18.90;60.00;;;;;;5028456;28;1460;-71
2023/05/14 07:09:28;;;;;;;;;;;18.80;60.10;;;;;;5023684;28;1223;-70
2023/05/14 07:11:53;;;;;;;;;;;18.80;60.00;;;;;;5030131;28;1567;-70
2023/05/14 07:14:19;;;;;;;;;;;18.90;60.10;;;;;;5027436;28;799;-71
2023/05/14 07:16:45;;;;;;;;;;;18.80;60.10;;;;;;5021620;28;1918;-71
2023/05/14 07:19:11;;;;;;;;;;;18.90;60.10;;;;;;5024738;28;907;-71
2023/05/14 07:21:36;;;;;;;;;;;18.80;60.10;;;;;;5023819;28;924;-70
2023/05/14 07:24:02;;;;;;;;;;;18.80;60.10;;;;;;5021915;28;899;-71
2023/05/14 07:26:27;;;;;;;;;;;18.90;60.20;;;;;;5024309;28;1291;-70
2023/05/14 07:28:53;;;;;;;;;;;18.90;60.20;;;;;;5029967;28;1269;-71
2023/05/14 07:31:18;;;;;;;;;;;18.90;60.20;;;;;;5025269;28;852;-71
2023/05/14 07:33:44;;;;;;;;;;;18.90;60.20;;;;;;5022086;28;1057;-71
2023/05/14 07:36:09;;;;;;;;;;;18.80;60.20;;;;;;5022078;28;1301;-71
2023/05/14 07:38:35;;;;;;;;;;;18.90;60.30;;;;;;5024360;28;1902;-71
2023/05/14 07:41:00;;;;;;;;;;;18.90;60.20;;;;;;5027853;28;887;-71
2023/05/14 07:43:26;;;;;;;;;;;18.90;60.30;;;;;;5020083;28;928;-71
2023/05/14 07:45:51;;;;;;;;;;;18.80;60.30;;;;;;5024868;28;1264;-71
2023/05/14 07:48:17;;;;;;;;;;;18.90;60.30;;;;;;5024741;28;888;-71
2023/05/14 07:50:42;;;;;;;;;;;18.90;60.30;;;;;;5026911;28;883;-71
2023/05/14 07:53:07;;;;;;;;;;;18.90;60.30;;;;;;5021799;28;1010;-72
2023/05/14 07:55:33;;;;;;;;;;;18.80;60.30;;;;;;5026461;28;1284;-71
2023/05/14 07:57:58;;;;;;;;;;;18.80;60.40;;;;;;5026676;28;1953;-71
2023/05/14 08:00:24;;;;;;;;;;;18.80;60.30;;;;;;5030081;28;793;-71
2023/05/14 08:02:50;;;;;;;;;;;18.80;60.40;;;;;;5030227;28;903;-71
2023/05/14 08:05:16;;;;;;;;;;;18.80;60.40;;;;;;5029189;28;1268;-70
2023/05/14 08:07:42;;;;;;;;;;;18.80;60.40;;;;;;5028509;28;1632;-71
2023/05/14 08:10:07;;;;;;;;;;;18.80;60.40;;;;;;5025338;28;1047;-71
2023/05/14 08:12:33;;;;;;;;;;;18.80;60.40;;;;;;5022162;28;1188;-71
2023/05/14 08:14:58;;;;;;;;;;;18.80;60.40;;;;;;5025249;28;800;-71
2023/05/14 08:17:24;;;;;;;;;;;18.80;60.40;;;;;;5025856;28;1890;-71
2023/05/14 08:19:49;;;;;;;;;;;18.80;60.70;;;;;;5030097;28;895;-71
2023/05/14 08:22:15;;;;;;;;;;;18.80;60.50;;;;;;5027314;28;963;-71
2023/05/14 08:24:41;;;;;;;;;;;18.80;60.50;;;;;;5022999;28;955;-71
2023/05/14 08:27:07;;;;;;;;;;;18.80;60.50;;;;;;5028827;28;1292;-72
2023/05/14 08:29:33;;;;;;;;;;;18.80;60.50;;;;;;5032318;28;1388;-71
2023/05/14 08:31:58;;;;;;;;;;;18.80;60.50;;;;;;5026332;28;887;-71
2023/05/14 08:34:24;;;;;;;;;;;18.80;60.50;;;;;;5026407;28;796;-71
2023/05/14 08:36:50;;;;;;;;;;;18.80;60.50;;;;;;5023208;28;1965;-72
2023/05/14 08:39:15;;;;;;;;;;;18.80;60.60;;;;;;5027211;28;850;-71
2023/05/14 08:41:41;;;;;;;;;;;18.80;60.60;;;;;;5029311;28;798;-71
2023/05/14 08:44:11;;;;;;;;;;;18.80;60.60;;;;;;5028154;28;881;-71
2023/05/14 08:46:37;;;;;;;;;;;18.80;60.60;;;;;;5029976;28;1345;-72
2023/05/14 08:49:05;;;;;;;;;;;18.80;60.60;;;;;;5024888;28;838;-72
2023/05/14 08:51:32;;;;;;;;;;;18.80;60.60;;;;;;5023842;28;1333;-71
2023/05/14 08:53:57;;;;;;;;;;;18.80;60.70;;;;;;5026333;28;1323;-73
2023/05/14 08:56:23;;;;;;;;;;;18.80;60.60;;;;;;5030741;28;1367;-72
2023/05/14 08:58:48;;;;;;;;;;;18.80;60.70;;;;;;5031163;28;1961;-72
2023/05/14 09:01:13;;;;;;;;;;;18.80;60.70;;;;;;5026961;28;1302;-72
2023/05/14 09:03:39;;;;;;;;;;;18.80;60.70;;;;;;5012349;28;2093;-71
2023/05/14 09:06:05;;;;;;;;;;;18.80;60.70;;;;;;5027830;28;1417;-71
2023/05/14 09:08:30;;;;;;;;;;;18.70;60.70;;;;;;5028426;28;1516;-71
2023/05/14 09:10:56;;;;;;;;;;;18.80;60.80;;;;;;5029826;28;870;-71
2023/05/14 09:13:21;;;;;;;;;;;18.80;60.80;;;;;;5025104;28;940;-71
2023/05/14 09:15:47;;;;;;;;;;;18.80;60.80;;;;;;5024278;28;1305;-71
2023/05/14 09:18:12;;;;;;;;;;;18.80;60.80;;;;;;5027889;28;1973;-71
2023/05/14 09:20:38;;;;;;;;;;;18.80;60.80;;;;;;5032775;28;1125;-71
2023/05/14 09:23:03;;;;;;;;;;;18.70;60.70;;;;;;5031571;28;935;-71
2023/05/14 09:25:30;;;;;;;;;;;18.80;60.80;;;;;;5034554;28;1365;-71
2023/05/14 09:27:55;;;;;;;;;;;18.70;60.80;;;;;;5031244;28;1269;-71
2023/05/14 09:30:21;;;;;;;;;;;18.80;60.80;;;;;;5026707;28;1014;-71
2023/05/14 09:32:48;;;;;;;;;;;18.80;60.80;;;;;;5026537;28;873;-71
2023/05/14 09:35:16;;;;;;;;;;;18.80;60.80;;;;;;5029094;28;1287;-70
2023/05/14 09:37:42;;;;;;;;;;;18.70;60.80;;;;;;5028289;28;1891;-70
2023/05/14 09:40:08;;;;;;;;;;;18.70;60.90;;;;;;5023219;28;1346;-71
2023/05/14 09:42:34;;;;;;;;;;;18.70;60.80;;;;;;5022914;28;1508;-71
2023/05/14 09:44:59;;;;;;;;;;;18.80;60.90;;;;;;5031681;28;884;-71
2023/05/14 09:47:25;;;;;;;;;;;18.80;60.90;;;;;;5030574;28;1272;-71
2023/05/14 09:49:51;;;;;;;;;;;18.70;60.90;;;;;;5028695;28;876;-71
2023/05/14 09:52:19;;;;;;;;;;;18.70;60.90;;;;;;5024260;28;870;-71
2023/05/14 09:54:45;;;;;;;;;;;18.70;60.90;;;;;;5030015;28;862;-71
2023/05/14 09:57:11;;;;;;;;;;;18.70;61.00;;;;;;5029518;28;1894;-69
2023/05/14 09:59:36;;;;;;;;;;;18.70;60.90;;;;;;5025265;28;1064;-69
2023/05/14 10:02:02;;;;;;;;;;;18.70;60.90;;;;;;5024684;28;848;-69
2023/05/14 10:04:27;;;;;;;;;;;18.70;61.00;;;;;;5026506;28;1057;-69
2023/05/14 10:06:53;;;;;;;;;;;18.70;61.00;;;;;;5025182;28;1280;-69
2023/05/14 10:09:19;;;;;;;;;;;18.70;61.00;;;;;;5027189;28;830;-69
2023/05/14 10:11:45;;;;;;;;;;;18.70;61.00;;;;;;5028289;28;933;-68
2023/05/14 10:14:19;;;;;;;;;;;18.70;61.00;;;;;;5023835;28;895;-69
2023/05/14 10:16:48;;;;;;;;;;;18.70;61.00;;;;;;5027912;28;2024;-69
2023/05/14 10:19:14;;;;;;;;;;;18.70;61.00;;;;;;5025210;28;832;-72
2023/05/14 10:21:40;;;;;;;;;;;18.70;61.10;;;;;;5027817;28;1191;-71
2023/05/14 10:24:06;;;;;;;;;;;18.70;61.00;;;;;;5030007;28;863;-72
2023/05/14 10:26:37;;;;;;;;;;;18.70;61.00;;;;;;5024541;28;1296;-72
2023/05/14 10:29:03;;;;;;;;;;;18.70;61.10;;;;;;5024098;28;1354;-71
2023/05/14 10:31:48;;;;;;;;;;;18.70;61.10;;;;;;5020479;28;931;-71
2023/05/14 10:34:32;;;;;;;;;;;18.70;61.10;;;;;;5025447;28;986;-71
2023/05/14 10:37:00;;;;;;;;;;;18.70;61.10;;;;;;5025889;28;1969;-70
2023/05/14 10:39:44;;;;;;;;;;;18.70;61.10;;;;;;5024195;28;899;-72
2023/05/14 10:42:11;;;;;;;;;;;18.70;61.10;;;;;;5027374;28;856;-72
2023/05/14 10:44:38;;;;;;;;;;;18.70;61.10;;;;;;5024887;28;824;-72
2023/05/14 10:47:04;;;;;;;;;;;18.70;61.10;;;;;;5028570;28;1924;-71
2023/05/14 10:49:29;;;;;;;;;;;18.70;61.10;;;;;;5023773;28;1373;-72
2023/05/14 10:51:55;;;;;;;;;;;18.70;61.10;;;;;;5028065;28;1390;-70
2023/05/14 10:54:21;;;;;;;;;;;18.70;61.20;;;;;;5023888;28;1519;-69
2023/05/14 10:56:48;;;;;;;;;;;18.70;61.20;;;;;;5025689;28;1966;-70
2023/05/14 10:59:15;;;;;;;;;;;18.70;61.20;;;;;;5028243;28;1270;-69
2023/05/14 11:01:40;;;;;;;;;;;18.70;61.30;;;;;;5026842;28;811;-70
2023/05/14 11:04:06;;;;;;;;;;;18.70;61.20;;;;;;5020987;28;904;-70
2023/05/14 11:06:31;;;;;;;;;;;18.70;61.20;;;;;;5024446;28;1362;-70
2023/05/14 11:08:57;;;;;;;;;;;18.70;61.20;;;;;;5059609;28;880;-69
2023/05/14 11:11:24;;;;;;;;;;;18.70;61.30;;;;;;5029320;28;946;-72
2023/05/14 11:13:50;;;;;;;;;;;18.70;61.30;;;;;;5025068;28;876;-73
2023/05/14 11:16:17;;;;;;;;;;;18.70;61.20;;;;;;5016510;28;1508;-72
2023/05/14 11:18:43;;;;;;;;;;;18.70;61.30;;;;;;5028905;28;2174;-74
2023/05/14 11:21:08;;;;;;;;;;;18.70;61.30;;;;;;5009314;28;2177;-73
2023/05/14 11:23:34;;;;;;;;;;;18.70;61.30;;;;;;5026005;28;1356;-72
2023/05/14 11:25:59;;;;;;;;;;;18.70;61.40;;;;;;5027141;28;1325;-74
2023/05/14 11:28:25;;;;;;;;;;;18.70;61.30;;;;;;5031880;28;1247;-73
2023/05/14 11:30:50;;;;;;;;;;;18.70;61.30;;;;;;5031345;28;911;-72
2023/05/14 11:33:16;;;;;;;;;;;18.70;61.40;;;;;;5033415;28;1431;-74
2023/05/14 11:35:44;;;;;;;;;;;18.70;61.40;;;;;;5027894;28;1452;-73
2023/05/14 11:38:14;;;;;;;;;;;18.70;61.40;;;;;;5031161;28;1967;-72
2023/05/14 11:40:39;;;;;;;;;;;18.70;61.40;;;;;;5035495;28;814;-72
2023/05/14 11:43:04;;;;;;;;;;;18.70;61.40;;;;;;5032105;28;860;-72
2023/05/14 11:45:31;;;;;;;;;;;18.70;61.40;;;;;;5023313;28;1374;-72
2023/05/14 11:47:57;;;;;;;;;;;18.70;61.40;;;;;;5020566;28;895;-72
2023/05/14 11:50:22;;;;;;;;;;;18.70;61.40;;;;;;5025603;28;1034;-73
2023/05/14 11:52:49;;;;;;;;;;;18.70;61.40;;;;;;5027081;28;971;-72
2023/05/14 11:55:15;;;;;;;;;;;18.70;61.40;;;;;;5024262;28;915;-72
2023/05/14 11:57:40;;;;;;;;;;;18.70;61.40;;;;;;5029157;28;1911;-72
2023/05/14 12:00:13;;;;;;;;;;;18.70;61.40;;;;;;5029944;28;883;-72
2023/05/14 12:02:38;;;;;;;;;;;18.70;61.40;;;;;;5030600;28;869;-71
2023/05/14 12:05:06;;;;;;;;;;;18.70;61.50;;;;;;5028257;28;963;-70
2023/05/14 12:07:31;;;;;;;;;;;18.70;61.50;;;;;;5027027;28;1267;-71
2023/05/14 12:09:59;;;;;;;;;;;18.70;61.40;;;;;;5025763;28;912;-72
2023/05/14 12:12:24;;;;;;;;;;;18.70;61.50;;;;;;5024268;28;1293;-72
2023/05/14 12:14:51;;;;;;;;;;;18.70;61.50;;;;;;5026047;28;1411;-72
2023/05/14 12:17:17;;;;;;;;;;;18.70;61.50;;;;;;5028125;28;1973;-73
2023/05/14 12:19:43;;;;;;;;;;;18.70;61.50;;;;;;5025453;28;1281;-72
2023/05/14 12:22:09;;;;;;;;;;;18.70;61.50;;;;;;5031604;28;938;-72
2023/05/14 12:24:35;;;;;;;;;;;18.70;61.50;;;;;;5023037;28;864;-72
2023/05/14 12:27:00;;;;;;;;;;;18.70;61.50;;;;;;5029549;28;1634;-74
2023/05/14 12:29:26;;;;;;;;;;;18.70;61.50;;;;;;5030526;28;1254;-73
2023/05/14 12:31:51;;;;;;;;;;;18.70;61.60;;;;;;5030367;28;912;-72
2023/05/14 12:34:17;;;;;;;;;;;18.70;61.60;;;;;;5033300;28;1049;-72
2023/05/14 12:36:42;;;;;;;;;;;18.70;61.60;;;;;;5030136;28;1284;-72
2023/05/14 12:39:08;;;;;;;;;;;18.70;61.60;;;;;;5026226;28;1902;-72
2023/05/14 12:41:34;;;;;;;;;;;18.70;61.60;;;;;;5028118;28;823;-72
2023/05/14 12:43:59;;;;;;;;;;;18.70;61.60;;;;;;5028334;28;1187;-70
2023/05/14 12:46:25;;;;;;;;;;;18.70;61.60;;;;;;5045850;28;1441;-71
2023/05/14 12:48:51;;;;;;;;;;;18.70;61.60;;;;;;5025622;28;1335;-71
2023/05/14 12:51:16;;;;;;;;;;;18.70;61.60;;;;;;5049145;28;1821;-71
2023/05/14 12:53:42;;;;;;;;;;;18.70;61.60;;;;;;5029172;28;1404;-70
2023/05/14 12:56:07;;;;;;;;;;;18.70;61.60;;;;;;5032713;28;1360;-70
2023/05/14 12:58:33;;;;;;;;;;;18.70;61.60;;;;;;5029413;28;1949;-72
2023/05/14 13:00:58;;;;;;;;;;;18.70;61.60;;;;;;5027166;28;1047;-72
2023/05/14 13:03:25;;;;;;;;;;;18.70;61.70;;;;;;5033364;28;893;-72
2023/05/14 13:05:51;;;;;;;;;;;18.70;61.70;;;;;;5024552;28;1283;-73
2023/05/14 13:08:16;;;;;;;;;;;18.70;61.70;;;;;;5026161;28;883;-72
2023/05/14 13:10:43;;;;;;;;;;;18.70;61.70;;;;;;5027551;28;1936;-72
2023/05/14 13:13:08;;;;;;;;;;;18.70;61.70;;;;;;5029599;28;1336;-72
2023/05/14 13:15:34;;;;;;;;;;;18.70;61.70;;;;;;5032275;28;1265;-72
2023/05/14 13:18:03;;;;;;;;;;;18.70;61.70;;;;;;5029953;28;1959;-72
2023/05/14 13:20:29;;;;;;;;;;;18.70;61.70;;;;;;5013336;28;1383;-72
2023/05/14 13:22:55;;;;;;;;;;;18.70;61.70;;;;;;5029863;28;861;-72
2023/05/14 13:25:21;;;;;;;;;;;18.70;61.70;;;;;;5030009;28;1271;-72
2023/05/14 13:27:49;;;;;;;;;;;18.70;61.70;;;;;;5026573;28;1264;-72
2023/05/14 13:30:15;;;;;;;;;;;18.70;61.70;;;;;;5024978;28;816;-71
2023/05/14 13:32:41;;;;;;;;;;;18.70;61.70;;;;;;5029569;28;876;-73
2023/05/14 13:35:07;;;;;;;;;;;18.70;61.70;;;;;;5024537;28;1120;-74
2023/05/14 13:37:32;;;;;;;;;;;18.70;61.80;;;;;;5028338;28;1898;-74
2023/05/14 13:39:57;;;;;;;;;;;18.70;61.70;;;;;;5032413;28;932;-73
2023/05/14 13:42:23;;;;;;;;;;;18.70;61.80;;;;;;5031536;28;879;-73
2023/05/14 13:44:48;;;;;;;;;;;18.70;61.70;;;;;;5021818;28;921;-73
2023/05/14 13:47:14;;;;;;;;;;;18.70;61.80;;;;;;5025988;28;1358;-73
2023/05/14 13:49:39;;;;;;;;;;;18.70;61.80;;;;;;5024366;28;846;-73
2023/05/14 13:52:05;;;;;;;;;;;18.70;61.80;;;;;;5031464;28;793;-73
2023/05/14 13:54:30;;;;;;;;;;;18.70;61.80;;;;;;5029848;28;913;-73
2023/05/14 13:56:56;;;;;;;;;;;18.70;61.80;;;;;;5027799;28;1994;-73
2023/05/14 13:59:22;;;;;;;;;;;18.70;61.80;;;;;;5028577;28;876;-73
2023/05/14 14:01:48;;;;;;;;;;;18.60;61.80;;;;;;5024329;28;959;-72
2023/05/14 14:04:15;;;;;;;;;;;18.70;61.80;;;;;;5020990;28;851;-72
2023/05/14 14:06:40;;;;;;;;;;;18.70;61.80;;;;;;5026053;28;1274;-72
2023/05/14 14:09:06;;;;;;;;;;;18.70;61.90;;;;;;5022574;28;903;-71
2023/05/14 14:11:31;;;;;;;;;;;18.70;61.80;;;;;;5029290;28;947;-70
2023/05/14 14:13:57;;;;;;;;;;;18.70;61.80;;;;;;5032577;28;895;-73
2023/05/14 14:16:22;;;;;;;;;;;18.70;61.90;;;;;;5025409;28;1346;-72
2023/05/14 14:18:48;;;;;;;;;;;18.70;61.80;;;;;;5021791;28;1969;-72
2023/05/14 14:21:16;;;;;;;;;;;18.70;61.80;;;;;;5025945;28;880;-72
2023/05/14 14:23:43;;;;;;;;;;;18.70;61.80;;;;;;5022994;28;746;-70
2023/05/14 14:26:08;;;;;;;;;;;18.70;61.80;;;;;;5027030;28;1323;-70
2023/05/14 14:28:34;;;;;;;;;;;18.70;61.80;;;;;;5028895;28;1293;-70